Time;durP1;ratioP1;P1;durP2;ratioP2;P2;SDS_P1;SDS_P2;PMS_P1;PMS_P2;Temp;Humidity;BMP_temperature;BMP_pressure;BME280_temperature;BME280_humidity;BME280_pressure;Samples;Min_cycle;Max_cycle;Signal;HPM_P1;HPM_P2
2023/04/12 00:00:26;;;;;;;4.53;1.80;;;;;;;10.14;60.45;101017.63;4995962;28;20029;-47
2023/04/12 00:02:53;;;;;;;4.60;2.00;;;;;;;10.16;60.39;101015.78;5005983;28;20037;-51
2023/04/12 00:05:21;;;;;;;3.58;1.90;;;;;;;10.18;60.32;101013.09;5010252;28;20630;-47
2023/04/12 00:07:52;;;;;;;2.63;1.58;;;;;;;10.19;60.28;101005.09;5013229;28;20079;-49
2023/04/12 00:10:18;;;;;;;6.13;2.28;;;;;;;10.19;60.24;101009.53;5005654;28;20120;-48
2023/04/12 00:12:43;;;;;;;4.22;1.65;;;;;;;10.21;60.10;101002.38;5008310;28;20037;-48
2023/04/12 00:15:11;;;;;;;4.03;1.42;;;;;;;10.20;60.13;101000.72;5012622;28;20037;-49
2023/04/12 00:17:36;;;;;;;6.15;2.25;;;;;;;10.18;60.39;101008.66;5007134;28;20092;-49
2023/04/12 00:20:04;;;;;;;3.83;1.60;;;;;;;10.19;60.31;100999.84;5011143;28;20033;-47
2023/04/12 00:22:30;;;;;;;2.85;1.67;;;;;;;10.27;60.17;101006.50;5004237;28;20117;-50
2023/04/12 00:24:57;;;;;;;3.03;1.63;;;;;;;10.32;59.91;100994.78;5005082;28;20125;-49
2023/04/12 00:27:22;;;;;;;2.85;1.60;;;;;;;10.36;59.95;100991.06;5014553;28;20100;-47
2023/04/12 00:29:47;;;;;;;3.97;1.90;;;;;;;10.39;59.94;100990.09;5011886;28;20034;-48
2023/04/12 00:32:13;;;;;;;6.32;2.13;;;;;;;10.44;59.76;100993.31;5013753;28;20424;-46
2023/04/12 00:34:38;;;;;;;3.63;1.63;;;;;;;10.40;59.92;100996.19;5010869;28;20496;-47
2023/04/12 00:37:04;;;;;;;6.05;2.05;;;;;;;10.41;59.89;100987.38;5011027;28;20030;-46
2023/04/12 00:39:30;;;;;;;4.80;2.10;;;;;;;10.45;59.76;100988.91;5007107;28;20022;-47
2023/04/12 00:42:00;;;;;;;5.50;1.73;;;;;;;10.49;59.82;100980.78;5011874;28;20037;-47
2023/04/12 00:44:25;;;;;;;3.70;1.70;;;;;;;10.48;59.72;100979.06;5009686;28;20037;-47
2023/04/12 00:46:51;;;;;;;4.38;1.90;;;;;;;10.50;59.70;100977.22;5016507;28;20034;-47
2023/04/12 00:49:16;;;;;;;3.08;1.60;;;;;;;10.51;59.77;100978.91;5005809;28;20045;-49
2023/04/12 00:51:42;;;;;;;2.40;1.58;;;;;;;10.52;59.78;100979.75;5007429;28;20034;-49
2023/04/12 00:54:07;;;;;;;2.55;1.48;;;;;;;10.51;59.83;100975.44;5006656;28;20447;-49
2023/04/12 00:56:33;;;;;;;4.03;1.70;;;;;;;10.51;59.37;100980.72;5009575;28;20129;-47
2023/04/12 00:59:00;;;;;;;2.53;1.60;;;;;;;10.53;59.72;100976.19;5003434;28;20030;-47
2023/04/12 01:01:27;;;;;;;3.72;1.85;;;;;;;10.54;59.62;100974.41;5007380;28;20025;-48
2023/04/12 01:03:59;;;;;;;8.45;2.30;;;;;;;10.55;59.58;100969.06;5011622;28;20033;-46
2023/04/12 01:06:28;;;;;;;6.30;2.13;;;;;;;10.55;59.53;100968.22;5004873;28;20259;-47
2023/04/12 01:09:10;;;;;;;7.30;2.20;;;;;;;10.54;59.61;100956.84;5011105;28;20471;-48
2023/04/12 01:12:00;;;;;;;10.33;1.83;;;;;;;10.54;59.60;100956.84;5007544;28;20060;-47
2023/04/12 01:14:42;;;;;;;4.95;1.73;;;;;;;10.53;59.53;100960.41;5011240;28;20029;-47
2023/04/12 01:17:13;;;;;;;6.85;2.47;;;;;;;10.54;59.34;100956.84;5009653;28;20049;-47
2023/04/12 01:20:15;;;;;;;4.40;2.05;;;;;;;10.51;59.37;100955.22;5010323;28;20068;-46
2023/04/12 01:23:06;;;;;;;4.18;1.88;;;;;;;10.49;59.38;100958.88;4988336;28;20044;-47
2023/04/12 01:25:46;;;;;;;4.28;2.00;;;;;;;10.44;59.47;100960.91;5005469;28;20029;-48
2023/04/12 01:28:15;;;;;;;5.32;2.25;;;;;;;10.40;59.62;100969.88;5005763;28;20560;-48
2023/04/12 01:30:42;;;;;;;4.72;1.83;;;;;;;10.34;59.67;100965.78;5013588;28;20512;-47
2023/04/12 01:33:11;;;;;;;6.55;2.17;;;;;;;10.20;59.89;100958.63;5007080;28;20113;-47
2023/04/12 01:35:37;;;;;;;4.53;2.03;;;;;;;10.12;60.19;100955.53;5009617;28;20060;-46
2023/04/12 01:38:04;;;;;;;9.98;1.85;;;;;;;10.03;60.24;100951.59;5007683;28;20026;-46
2023/04/12 01:40:30;;;;;;;6.05;2.20;;;;;;;9.97;60.43;100952.78;5007188;28;20029;-47
2023/04/12 01:43:12;;;;;;;6.35;2.00;;;;;;;10.01;60.29;100943.81;5010529;28;20038;-47
2023/04/12 01:45:38;;;;;;;4.90;1.90;;;;;;;9.99;60.16;100943.03;5010144;28;20392;-47
2023/04/12 01:48:09;;;;;;;5.20;2.67;;;;;;;9.94;60.05;100945.03;5006850;28;20026;-47
2023/04/12 01:50:50;;;;;;;5.53;2.35;;;;;;;9.79;60.70;100943.22;5022010;28;20033;-47
2023/04/12 01:53:26;;;;;;;3.30;1.88;;;;;;;9.72;60.80;100940.03;5011998;28;20025;-48
2023/04/12 01:55:55;;;;;;;5.57;2.33;;;;;;;9.66;60.86;100925.44;5002598;28;20041;-48
2023/04/12 01:58:23;;;;;;;5.53;2.13;;;;;;;9.64;60.66;100929.91;5008490;28;20083;-47
2023/04/12 02:00:50;;;;;;;4.88;2.20;;;;;;;9.64;60.68;100929.91;5008331;28;20096;-47
2023/04/12 02:03:20;;;;;;;3.72;2.20;;;;;;;9.63;60.57;100928.22;5009440;28;20567;-49
2023/04/12 02:05:46;;;;;;;4.35;2.55;;;;;;;9.60;60.62;100928.41;5000195;28;20052;-47
2023/04/12 02:08:12;;;;;;;7.28;2.33;;;;;;;9.55;60.64;100917.25;5009180;28;20021;-46
2023/04/12 02:10:39;;;;;;;4.63;1.95;;;;;;;9.50;60.75;100912.25;5011466;28;20062;-48
2023/04/12 02:13:05;;;;;;;6.80;2.60;;;;;;;9.49;60.69;100913.19;5006734;28;20377;-50
2023/04/12 02:15:31;;;;;;;4.47;2.50;;;;;;;9.48;60.50;100900.09;5011585;28;20036;-51
2023/04/12 02:17:58;;;;;;;5.50;2.55;;;;;;;9.40;60.92;100900.50;5009445;28;20034;-49
2023/04/12 02:20:24;;;;;;;3.20;1.92;;;;;;;9.35;60.85;100900.72;5011944;28;20022;-48
2023/04/12 02:22:50;;;;;;;3.40;1.50;;;;;;;9.20;61.33;100898.88;5004082;28;20083;-48
2023/04/12 02:25:18;;;;;;;4.75;2.20;;;;;;;9.18;60.97;100905.97;5006606;28;20396;-47
2023/04/12 02:27:45;;;;;;;4.38;2.13;;;;;;;9.14;61.15;100898.25;4998506;28;20033;-47
2023/04/12 02:30:11;;;;;;;9.90;2.50;;;;;;;9.18;61.11;100905.97;5004457;28;20526;-48
2023/04/12 02:32:43;;;;;;;3.78;1.70;;;;;;;9.19;61.19;100908.53;5006909;28;20030;-46
2023/04/12 02:35:13;;;;;;;4.85;2.33;;;;;;;9.14;60.89;100905.28;5005040;28;20037;-47
2023/04/12 02:37:39;;;;;;;3.30;1.60;;;;;;;9.02;61.14;100895.38;5002082;28;20030;-47
2023/04/12 02:40:07;;;;;;;3.67;1.83;;;;;;;8.95;61.07;100889.56;5000954;28;20017;-46
2023/04/12 02:42:32;;;;;;;4.22;1.77;;;;;;;8.87;61.33;100894.31;5004919;28;20474;-47
2023/04/12 02:44:58;;;;;;;4.07;1.98;;;;;;;8.93;61.15;100894.88;5007117;28;20038;-46
2023/04/12 02:47:28;;;;;;;3.60;1.80;;;;;;;8.92;61.02;100890.59;5005517;28;20042;-46
2023/04/12 02:49:54;;;;;;;3.10;1.77;;;;;;;8.92;60.87;100887.09;5001005;28;20033;-47
2023/04/12 02:52:19;;;;;;;4.00;2.15;;;;;;;8.89;60.85;100887.25;5009149;28;20038;-46
2023/04/12 02:54:45;;;;;;;7.20;2.58;;;;;;;8.87;60.79;100886.44;5016254;28;20875;-46
2023/04/12 02:57:11;;;;;;;4.32;2.30;;;;;;;8.88;60.59;100880.28;5000943;28;20049;-48
2023/04/12 02:59:36;;;;;;;7.65;2.40;;;;;;;8.83;60.50;100878.75;5002859;28;20033;-46
2023/04/12 03:02:02;;;;;;;3.80;2.08;;;;;;;8.80;60.67;100880.66;5009664;28;20395;-49
2023/04/12 03:04:29;;;;;;;6.65;3.05;;;;;;;8.76;60.88;100876.50;5004349;28;20034;-47
2023/04/12 03:06:55;;;;;;;7.43;2.35;;;;;;;8.73;60.68;100866.97;5000901;28;20034;-47
2023/04/12 03:09:21;;;;;;;7.90;3.22;;;;;;;8.73;60.84;100874.00;5008476;28;20530;-46
2023/04/12 03:11:47;;;;;;;6.93;3.30;;;;;;;8.73;60.59;100877.47;5006629;28;20599;-48
2023/04/12 03:14:12;;;;;;;8.43;3.47;;;;;;;8.66;60.82;100876.91;4998585;28;20069;-49
2023/04/12 03:16:38;;;;;;;5.22;2.28;;;;;;;8.53;60.96;100873.19;5006381;28;20030;-45
2023/04/12 03:19:05;;;;;;;6.20;2.58;;;;;;;8.48;61.21;100864.66;4999329;28;20058;-46
2023/04/12 03:21:32;;;;;;;9.52;3.40;;;;;;;8.47;61.00;100855.94;5000609;28;20396;-49
2023/04/12 03:23:57;;;;;;;6.97;3.75;;;;;;;8.47;60.99;100853.31;5000564;28;20045;-48
2023/04/12 03:26:25;;;;;;;7.35;3.35;;;;;;;8.47;61.11;100850.69;5008110;28;20025;-48
2023/04/12 03:28:53;;;;;;;8.27;3.70;;;;;;;8.49;61.02;100850.63;5005288;28;20177;-47
2023/04/12 03:31:20;;;;;;;5.10;2.75;;;;;;;8.49;60.80;100846.25;5008980;28;20041;-46
2023/04/12 03:33:45;;;;;;;7.10;2.70;;;;;;;8.48;60.75;100854.19;5003359;28;20045;-48
2023/04/12 03:36:11;;;;;;;5.90;2.92;;;;;;;8.45;60.73;100859.56;5006986;28;20037;-46
2023/04/12 03:38:36;;;;;;;4.05;2.47;;;;;;;8.43;61.00;100854.38;5004959;28;20036;-46
2023/04/12 03:41:02;;;;;;;6.57;2.50;;;;;;;8.46;60.87;100851.59;5003790;28;20033;-47
2023/04/12 03:43:34;;;;;;;9.38;3.38;;;;;;;8.45;60.85;100844.66;5004747;28;20053;-48
2023/04/12 03:45:59;;;;;;;;;;;;;;;8.35;60.98;100849.47;5004677;28;20378;-47
2023/04/12 03:48:25;;;;;;;8.77;2.85;;;;;;;8.35;60.82;100844.25;5011206;28;20423;-45
2023/04/12 03:50:53;;;;;;;7.32;3.03;;;;;;;8.34;61.03;100853.03;5010615;28;20391;-46
2023/04/12 03:53:20;;;;;;;6.53;2.58;;;;;;;8.33;60.82;100842.63;5016361;28;20030;-48
2023/04/12 03:55:45;;;;;;;5.65;3.00;;;;;;;8.32;60.58;100835.69;5009664;28;20121;-46
2023/04/12 03:58:12;;;;;;;4.55;3.03;;;;;;;8.31;60.34;100841.84;5001961;28;20117;-46
2023/04/12 04:00:38;;;;;;;6.20;2.92;;;;;;;8.28;60.96;100836.72;5002956;28;20068;-49
2023/04/12 04:03:04;;;;;;;6.22;2.50;;;;;;;8.27;60.68;100835.03;5001462;28;20046;-49
2023/04/12 04:05:31;;;;;;;5.43;2.95;;;;;;;8.28;60.44;100840.22;5005306;28;20069;-48
2023/04/12 04:08:01;;;;;;;7.97;3.03;;;;;;;8.22;60.69;100828.25;5010750;28;20033;-46
2023/04/12 04:10:30;;;;;;;6.75;3.85;;;;;;;8.18;60.93;100831.06;5010512;28;20037;-46
2023/04/12 04:12:55;;;;;;;6.25;3.30;;;;;;;8.15;60.90;100832.06;5010386;28;20412;-49
2023/04/12 04:15:21;;;;;;;10.55;4.10;;;;;;;8.12;60.82;100826.13;5004997;28;20034;-48
2023/04/12 04:17:47;;;;;;;7.68;4.43;;;;;;;8.14;60.99;100822.50;5008872;28;20318;-46
2023/04/12 04:20:13;;;;;;;8.50;3.90;;;;;;;8.15;60.72;100821.56;5010675;28;20116;-49
2023/04/12 04:22:41;;;;;;;8.13;3.50;;;;;;;8.19;60.68;100823.16;5008266;28;20129;-49
2023/04/12 04:25:06;;;;;;;6.57;3.42;;;;;;;8.18;60.60;100816.19;5002768;28;20026;-46
2023/04/12 04:27:33;;;;;;;10.20;3.63;;;;;;;8.17;60.88;100806.63;5012115;28;20041;-46
2023/04/12 04:30:01;;;;;;;6.10;3.00;;;;;;;8.17;60.66;100813.63;5011524;28;20029;-46
2023/04/12 04:32:31;;;;;;;5.55;3.10;;;;;;;8.19;60.65;100810.03;5007983;28;20104;-47
2023/04/12 04:34:59;;;;;;;7.18;3.13;;;;;;;8.20;60.67;100810.88;5004547;28;22620;-46
2023/04/12 04:37:27;;;;;;;6.72;3.40;;;;;;;8.20;60.62;100818.75;5006195;28;20029;-47
2023/04/12 04:39:52;;;;;;;7.82;4.07;;;;;;;8.19;60.52;100817.03;5004633;28;20468;-46
2023/04/12 04:42:18;;;;;;;8.68;3.97;;;;;;;8.21;60.76;100804.72;5009923;28;20103;-49
2023/04/12 04:44:43;;;;;;;8.90;2.22;;;;;;;8.20;60.55;100809.13;5004479;28;20095;-49
2023/04/12 04:47:09;;;;;;;8.30;3.75;;;;;;;8.19;60.51;100810.03;5007993;28;20052;-49
2023/04/12 04:49:38;;;;;;;3.75;1.90;;;;;;;8.21;60.51;100812.56;5011880;28;20037;-49
2023/04/12 04:52:04;;;;;;;10.77;4.40;;;;;;;8.24;60.41;100815.06;5004607;28;20100;-46
2023/04/12 04:54:30;;;;;;;10.52;4.47;;;;;;;8.23;60.41;100823.84;5010609;28;20538;-46
2023/04/12 04:56:56;;;;;;;9.63;4.57;;;;;;;8.24;60.41;100810.66;5006676;28;20512;-48
2023/04/12 04:59:22;;;;;;;9.13;4.10;;;;;;;8.26;60.60;100814.97;5010513;28;20040;-47
2023/04/12 05:01:48;;;;;;;5.93;3.42;;;;;;;8.26;60.75;100817.59;5001641;28;20026;-46
2023/04/12 05:04:13;;;;;;;8.45;3.38;;;;;;;8.24;60.63;100805.41;4997583;28;20036;-45
2023/04/12 05:06:39;;;;;;;7.28;3.80;;;;;;;8.23;60.89;100808.97;5007917;28;20556;-48
2023/04/12 05:09:04;;;;;;;9.70;4.22;;;;;;;8.27;60.99;100803.56;5010440;28;20037;-46
2023/04/12 05:11:30;;;;;;;7.40;3.22;;;;;;;8.29;60.86;100804.34;5017722;28;20042;-48
2023/04/12 05:13:55;;;;;;;8.57;3.22;;;;;;;8.35;61.15;100807.53;4999111;28;20060;-50
2023/04/12 05:16:21;;;;;;;11.40;4.82;;;;;;;8.40;60.99;100802.06;5008206;28;20051;-45
2023/04/12 05:18:46;;;;;;;8.50;3.85;;;;;;;8.46;60.97;100803.56;5009399;28;20116;-46
2023/04/12 05:21:11;;;;;;;15.50;4.32;;;;;;;8.42;61.04;100808.09;5010709;28;20033;-48
2023/04/12 05:23:42;;;;;;;7.10;3.53;;;;;;;8.46;61.22;100812.28;5000151;28;20022;-45
2023/04/12 05:26:07;;;;;;;12.32;4.93;;;;;;;8.47;61.25;100816.59;5003221;28;20064;-51
2023/04/12 05:28:33;;;;;;;9.07;4.50;;;;;;;8.42;61.61;100817.75;5001634;28;20120;-48
2023/04/12 05:30:58;;;;;;;9.75;4.95;;;;;;;8.43;61.46;100822.06;4993966;28;20104;-45
2023/04/12 05:33:24;;;;;;;11.10;5.05;;;;;;;8.40;61.57;100820.41;4994022;28;20091;-47
2023/04/12 05:35:49;;;;;;;12.10;4.93;;;;;;;8.41;61.67;100822.13;5010434;28;20476;-47
2023/04/12 05:38:14;;;;;;;13.05;3.90;;;;;;;8.32;61.93;100817.31;5002451;28;20447;-47
2023/04/12 05:40:42;;;;;;;7.57;3.83;;;;;;;8.28;62.22;100815.75;4999726;28;20025;-48
2023/04/12 05:43:11;;;;;;;8.23;3.65;;;;;;;8.16;62.42;100811.97;4990091;28;20095;-47
2023/04/12 05:45:37;;;;;;;8.70;3.38;;;;;;;8.12;62.64;100803.38;4998700;28;20431;-46
2023/04/12 05:48:02;;;;;;;9.15;3.90;;;;;;;8.12;62.65;100805.16;5004864;28;20030;-49
2023/04/12 05:50:28;;;;;;;8.60;3.88;;;;;;;8.17;62.63;100797.91;4987670;28;20443;-49
2023/04/12 05:52:54;;;;;;;8.45;3.78;;;;;;;8.23;62.55;100805.50;4996533;28;20041;-47
2023/04/12 05:55:20;;;;;;;7.82;3.35;;;;;;;8.23;62.70;100803.75;5001182;28;20026;-47
2023/04/12 05:57:47;;;;;;;8.07;3.58;;;;;;;8.29;62.47;100801.72;4997013;28;20063;-49
2023/04/12 06:00:17;;;;;;;7.70;3.92;;;;;;;8.33;62.56;100792.81;5002298;28;20020;-51
2023/04/12 06:02:47;;;;;;;8.20;3.95;;;;;;;8.43;62.60;100793.22;4998684;28;20025;-49
2023/04/12 06:05:13;;;;;;;9.13;4.45;;;;;;;8.50;62.76;100790.25;5005722;28;20496;-49
2023/04/12 06:07:40;;;;;;;11.73;4.03;;;;;;;8.60;62.19;100789.81;5004152;28;20034;-50
2023/04/12 06:10:07;;;;;;;11.02;3.88;;;;;;;8.59;62.48;100788.97;4998693;28;20038;-48
2023/04/12 06:12:33;;;;;;;13.93;3.95;;;;;;;8.61;62.69;100781.88;4999229;28;20038;-47
2023/04/12 06:14:59;;;;;;;10.18;3.60;;;;;;;8.71;62.54;100776.16;4998652;28;20037;-48
2023/04/12 06:17:25;;;;;;;5.85;3.40;;;;;;;8.75;62.34;100777.72;4998057;28;20073;-50
2023/04/12 06:19:50;;;;;;;10.15;2.85;;;;;;;8.75;62.71;100773.31;5001008;28;20845;-48
2023/04/12 06:22:16;;;;;;;7.93;3.17;;;;;;;8.77;62.65;100774.09;5001816;28;20038;-47
2023/04/12 06:24:41;;;;;;;9.68;3.95;;;;;;;8.82;62.71;100773.84;5001854;28;20030;-47
2023/04/12 06:27:06;;;;;;;9.70;3.53;;;;;;;8.85;62.46;100766.66;5005307;28;20068;-47
2023/04/12 06:29:32;;;;;;;8.43;2.92;;;;;;;8.88;62.40;100773.56;4998854;28;20088;-47
2023/04/12 06:31:57;;;;;;;9.05;3.20;;;;;;;8.92;62.63;100762.00;5002381;28;20700;-48
2023/04/12 06:34:23;;;;;;;9.00;4.28;;;;;;;8.97;62.76;100759.13;5003254;28;20072;-52
2023/04/12 06:36:48;;;;;;;9.30;3.85;;;;;;;9.03;62.25;100755.34;4996306;28;20041;-47
2023/04/12 06:39:15;;;;;;;12.45;4.32;;;;;;;9.05;62.11;100754.31;4999450;28;20048;-51
2023/04/12 06:41:42;;;;;;;10.27;3.97;;;;;;;9.07;62.25;100755.09;5000849;28;20033;-49
2023/04/12 06:44:08;;;;;;;8.27;3.42;;;;;;;9.04;62.57;100757.88;4991306;28;20069;-49
2023/04/12 06:46:34;;;;;;;6.18;3.50;;;;;;;9.06;62.50;100756.03;4989299;28;20033;-48
2023/04/12 06:49:00;;;;;;;6.38;3.33;;;;;;;9.14;62.46;100746.00;4998603;28;20036;-47
2023/04/12 06:51:26;;;;;;;8.77;3.45;;;;;;;9.20;62.33;100741.34;4999981;28;20034;-47
2023/04/12 06:53:52;;;;;;;10.57;4.65;;;;;;;9.23;62.38;100735.94;4999282;28;20029;-48
2023/04/12 06:56:18;;;;;;;11.23;4.38;;;;;;;9.28;62.48;100737.38;4994927;28;20055;-51
2023/04/12 06:58:44;;;;;;;7.80;3.65;;;;;;;9.35;62.24;100732.66;4984540;28;20041;-49
2023/04/12 07:01:09;;;;;;;10.32;4.47;;;;;;;9.41;62.36;100729.72;4997474;28;20113;-50
2023/04/12 07:03:35;;;;;;;12.88;5.15;;;;;;;9.42;62.05;100728.78;5001049;28;20374;-49
2023/04/12 07:06:01;;;;;;;13.45;5.03;;;;;;;9.49;62.18;100723.19;5006873;28;20049;-49
2023/04/12 07:08:34;;;;;;;13.38;5.13;;;;;;;9.51;62.07;100722.19;4998937;28;20076;-51
2023/04/12 07:11:00;;;;;;;8.68;4.03;;;;;;;9.50;62.04;100723.13;4997598;28;20972;-48
2023/04/12 07:13:25;;;;;;;11.70;4.57;;;;;;;9.52;62.03;100723.03;5010128;28;20033;-50
2023/04/12 07:15:51;;;;;;;13.32;6.43;;;;;;;9.56;62.12;100721.94;5006717;28;20026;-48
2023/04/12 07:18:17;;;;;;;7.47;4.00;;;;;;;9.65;61.84;100721.44;5008489;28;20037;-48
2023/04/12 07:20:44;;;;;;;10.02;3.67;;;;;;;9.72;61.89;100717.56;5003092;28;20428;-48
2023/04/12 07:23:10;;;;;;;16.23;4.53;;;;;;;9.73;61.79;100711.38;5009396;28;20033;-47
2023/04/12 07:25:38;;;;;;;9.70;3.50;;;;;;;9.76;61.96;100708.56;5005372;28;20038;-47
2023/04/12 07:28:04;;;;;;;8.07;3.58;;;;;;;9.83;61.89;100705.59;5010527;28;20036;-49
2023/04/12 07:30:30;;;;;;;9.70;4.35;;;;;;;9.85;61.80;100711.63;5008862;28;20037;-48
2023/04/12 07:32:55;;;;;;;7.00;3.38;;;;;;;9.91;61.81;100703.38;5010565;28;20135;-48
2023/04/12 07:35:21;;;;;;;27.48;12.25;;;;;;;9.97;61.68;100710.94;5014632;28;20507;-48
2023/04/12 07:37:46;;;;;;;8.48;5.05;;;;;;;10.01;61.85;100707.22;5007436;28;20091;-49
2023/04/12 07:40:12;;;;;;;10.70;4.40;;;;;;;10.01;62.04;100717.72;5013466;28;20061;-52
2023/04/12 07:42:37;;;;;;;11.93;3.80;;;;;;;10.06;62.08;100710.41;5011673;28;20041;-49
2023/04/12 07:45:03;;;;;;;8.68;3.33;;;;;;;10.13;61.92;100710.06;5014839;28;20030;-51
2023/04/12 07:47:28;;;;;;;8.35;3.80;;;;;;;10.08;62.12;100702.47;5007929;28;20060;-47
2023/04/12 07:49:54;;;;;;;8.48;4.40;;;;;;;10.19;62.09;100699.22;5010884;28;20030;-48
2023/04/12 07:52:20;;;;;;;7.78;3.70;;;;;;;10.22;61.97;100693.75;5017180;28;20056;-48
2023/04/12 07:54:45;;;;;;;9.02;3.15;;;;;;;10.29;61.73;100697.75;5006831;28;21306;-48
2023/04/12 07:57:11;;;;;;;10.82;3.42;;;;;;;10.34;61.91;100695.72;5008614;28;20036;-49
2023/04/12 07:59:36;;;;;;;10.60;3.40;;;;;;;10.39;61.61;100689.34;5009567;28;20030;-46
2023/04/12 08:02:02;;;;;;;17.65;6.97;;;;;;;10.46;61.63;100690.72;5009861;28;20033;-48
2023/04/12 08:04:27;;;;;;;17.75;5.78;;;;;;;10.50;61.52;100685.19;5017133;28;20044;-51
2023/04/12 08:06:53;;;;;;;16.85;5.57;;;;;;;10.50;61.66;100681.72;5009919;28;20055;-46
2023/04/12 08:09:19;;;;;;;10.75;4.05;;;;;;;10.56;61.43;100681.34;5007049;28;20401;-45
2023/04/12 08:11:46;;;;;;;8.13;2.63;;;;;;;10.59;61.28;100678.53;5013228;28;20507;-46
2023/04/12 08:14:12;;;;;;;9.73;2.58;;;;;;;10.61;60.96;100681.91;5014013;28;20131;-51
2023/04/12 08:16:37;;;;;;;7.25;3.17;;;;;;;10.62;60.85;100681.00;5001525;28;20431;-46
2023/04/12 08:19:03;;;;;;;9.85;3.60;;;;;;;10.55;60.99;100670.91;5007219;28;20036;-48
2023/04/12 08:21:28;;;;;;;6.68;2.03;;;;;;;10.52;60.56;100680.69;5003031;28;20025;-49
2023/04/12 08:23:54;;;;;;;8.85;3.40;;;;;;;10.57;60.55;100671.69;5000406;28;20040;-47
2023/04/12 08:26:20;;;;;;;11.38;2.92;;;;;;;10.55;60.20;100674.38;4997894;28;20061;-47
2023/04/12 08:28:47;;;;;;;10.35;2.00;;;;;;;10.61;60.20;100663.50;5002719;28;20046;-46
2023/04/12 08:31:13;;;;;;;14.57;4.05;;;;;;;10.67;59.99;100657.84;4999820;28;20129;-49
2023/04/12 08:33:38;;;;;;;8.00;2.53;;;;;;;10.74;59.90;100657.50;4998381;28;20037;-47
2023/04/12 08:36:04;;;;;;;7.63;2.38;;;;;;;10.80;59.87;100657.97;4994092;28;20716;-48
2023/04/12 08:38:30;;;;;;;8.52;2.28;;;;;;;10.86;59.77;100653.28;4998578;28;20116;-52
2023/04/12 08:40:56;;;;;;;20.48;7.20;;;;;;;10.91;59.68;100643.31;4998748;28;20164;-55
2023/04/12 08:43:27;;;;;;;10.07;3.50;;;;;;;10.93;59.44;100639.66;4996134;28;20188;-47
2023/04/12 08:45:54;;;;;;;12.82;2.22;;;;;;;10.93;59.41;100642.31;4996949;28;20057;-50
2023/04/12 08:48:21;;;;;;;8.30;1.80;;;;;;;10.98;59.29;100642.00;5008849;28;20085;-50
2023/04/12 08:50:48;;;;;;;13.65;2.22;;;;;;;11.07;59.34;100637.97;5009398;28;20022;-47
2023/04/12 08:53:13;;;;;;;6.28;1.85;;;;;;;11.11;59.51;100637.69;5004179;28;20038;-46
2023/04/12 08:55:43;;;;;;;9.07;2.28;;;;;;;11.16;59.00;100633.94;5005093;28;20034;-53
2023/04/12 08:58:09;;;;;;;16.33;2.95;;;;;;;11.21;58.74;100627.44;5001501;28;20041;-50
2023/04/12 09:00:36;;;;;;;5.80;1.48;;;;;;;11.26;58.58;100613.97;5008457;28;20022;-47
2023/04/12 09:03:02;;;;;;;11.15;2.45;;;;;;;11.33;58.65;100617.06;4998805;28;20512;-47
2023/04/12 09:05:30;;;;;;;9.50;2.42;;;;;;;11.36;57.85;100616.88;5006633;28;20046;-54
2023/04/12 09:07:57;;;;;;;10.57;3.10;;;;;;;11.39;58.25;100614.06;5010458;28;20105;-54
2023/04/12 09:10:49;;;;;;;11.98;4.53;;;;;;;11.42;57.41;100605.94;5007931;28;20041;-47
2023/04/12 09:13:14;;;;;;;11.98;3.10;;;;;;;11.47;58.19;100606.50;5007689;28;20042;-50
2023/04/12 09:15:49;;;;;;;9.00;1.92;;;;;;;11.50;57.59;100592.25;5002064;28;20038;-46
2023/04/12 09:18:15;;;;;;;4.55;1.60;;;;;;;11.54;57.59;100589.38;5005782;28;20036;-50
2023/04/12 09:20:40;;;;;;;8.75;2.97;;;;;;;11.59;57.49;100581.97;5008442;28;20034;-49
2023/04/12 09:23:17;;;;;;;4.45;2.25;;;;;;;11.62;56.25;100580.09;5006582;28;20055;-47
2023/04/12 09:25:51;;;;;;;13.40;1.80;;;;;;;11.67;56.90;100580.66;5008791;28;20034;-50
2023/04/12 09:28:30;;;;;;;4.28;1.38;;;;;;;11.68;56.51;100579.72;5016193;28;20085;-51
2023/04/12 09:30:58;;;;;;;8.65;1.45;;;;;;;11.70;56.44;100567.28;5010561;28;20037;-48
2023/04/12 09:33:35;;;;;;;6.30;2.00;;;;;;;11.71;55.82;100563.72;5011274;28;20021;-48
2023/04/12 09:36:02;;;;;;;5.93;1.60;;;;;;;11.75;56.10;100549.34;5011770;28;20037;-48
2023/04/12 09:38:32;;;;;;;13.75;5.00;;;;;;;11.82;55.92;100545.38;5011280;28;20093;-47
2023/04/12 09:41:18;;;;;;;13.57;4.20;;;;;;;11.90;55.41;100545.72;5010316;28;20119;-51
2023/04/12 09:43:43;;;;;;;6.63;1.95;;;;;;;11.95;55.68;100544.56;5010012;28;20031;-47
2023/04/12 09:46:13;;;;;;;3.97;1.17;;;;;;;11.97;54.98;100537.41;5012445;28;20108;-47
2023/04/12 09:48:39;;;;;;;4.45;1.45;;;;;;;11.95;54.91;100534.03;5013193;28;20047;-47
2023/04/12 09:51:06;;;;;;;6.72;1.02;;;;;;;11.99;54.95;100519.72;5004781;28;20034;-49
2023/04/12 09:53:33;;;;;;;7.10;1.17;;;;;;;12.04;54.84;100520.22;5010325;28;20036;-47
2023/04/12 09:56:02;;;;;;;8.30;2.10;;;;;;;12.07;54.19;100506.84;5011016;28;20104;-47
2023/04/12 09:58:29;;;;;;;7.40;1.42;;;;;;;12.08;53.78;100511.19;5009792;28;20060;-49
2023/04/12 10:00:58;;;;;;;5.43;1.58;;;;;;;12.13;54.26;100501.16;5011615;28;20084;-49
2023/04/12 10:03:24;;;;;;;5.13;1.13;;;;;;;12.14;53.92;100496.72;5010315;28;20026;-48
2023/04/12 10:05:49;;;;;;;5.50;1.20;;;;;;;12.18;54.18;100496.41;5008088;28;20075;-47
2023/04/12 10:08:16;;;;;;;2.97;1.30;;;;;;;12.21;53.54;100492.72;5013758;28;20034;-49
2023/04/12 10:10:45;;;;;;;3.75;1.00;;;;;;;12.18;53.03;100493.75;5010513;28;20032;-53
2023/04/12 10:13:12;;;;;;;8.60;1.85;;;;;;;12.19;53.75;100490.19;5012222;28;20503;-50
2023/04/12 10:15:39;;;;;;;8.07;1.65;;;;;;;12.23;53.73;100479.41;5009504;28;20034;-48
2023/04/12 10:18:06;;;;;;;4.75;1.17;;;;;;;12.29;53.70;100468.47;5011340;28;20042;-49
2023/04/12 10:20:31;;;;;;;15.27;5.65;;;;;;;12.34;52.92;100468.97;5009510;28;20022;-50
2023/04/12 10:23:00;;;;;;;5.15;1.50;;;;;;;12.38;52.36;100457.25;5007061;28;20451;-50
2023/04/12 10:25:28;;;;;;;4.75;2.35;;;;;;;12.43;52.63;100449.88;5008595;28;20092;-51
2023/04/12 10:27:54;;;;;;;6.50;1.67;;;;;;;12.54;52.70;100446.47;5010710;28;20460;-47
2023/04/12 10:30:30;;;;;;;7.30;2.63;;;;;;;12.63;52.41;100444.94;5007016;28;20500;-52
2023/04/12 10:33:01;;;;;;;7.20;1.70;;;;;;;12.70;50.94;100448.03;5009735;28;20025;-50
2023/04/12 10:35:27;;;;;;;7.15;1.10;;;;;;;12.72;52.14;100444.31;5007142;28;20665;-47
2023/04/12 10:38:03;;;;;;;3.92;1.10;;;;;;;12.73;51.12;100446.00;5010570;28;20536;-47
2023/04/12 10:40:30;;;;;;;6.15;1.20;;;;;;;12.79;51.78;100440.25;5005741;28;20061;-54
2023/04/12 10:43:25;;;;;;;4.78;1.38;;;;;;;12.87;49.42;100446.81;5009818;28;20423;-51
2023/04/12 10:45:50;;;;;;;7.65;2.55;;;;;;;12.89;50.76;100437.81;5010056;28;20022;-47
2023/04/12 10:48:34;;;;;;;5.82;2.08;;;;;;;12.87;48.75;100426.50;5009538;28;20052;-49
2023/04/12 10:51:22;;;;;;;18.77;2.58;;;;;;;12.93;48.36;100435.81;5008609;28;20022;-47
2023/04/12 10:53:48;;;;;;;2.60;1.10;;;;;;;12.98;50.07;100428.38;5007574;28;20492;-47
2023/04/12 10:56:46;;;;;;;6.78;1.40;;;;;;;13.08;48.25;100418.81;5006946;28;20030;-52
2023/04/12 10:59:13;;;;;;;3.67;0.68;;;;;;;13.17;49.48;100421.75;4969564;28;20049;-47
2023/04/12 11:01:40;;;;;;;4.50;0.90;;;;;;;13.25;49.76;100414.09;5008490;28;20030;-47
2023/04/12 11:04:08;;;;;;;12.38;2.20;;;;;;;13.29;49.53;100412.06;5009340;28;20036;-47
2023/04/12 11:06:51;;;;;;;5.75;1.55;;;;;;;13.34;49.20;100407.28;5008527;28;20026;-50
2023/04/12 11:09:25;;;;;;;3.95;1.30;;;;;;;13.38;49.26;100404.31;5010030;28;20038;-50
2023/04/12 11:12:12;;;;;;;6.53;1.60;;;;;;;13.45;47.59;100394.16;5012374;28;20076;-50
2023/04/12 11:14:43;;;;;;;17.20;1.70;;;;;;;13.49;48.61;100385.00;5008905;28;20030;-51
2023/04/12 11:17:08;;;;;;;6.15;1.60;;;;;;;13.54;49.46;100377.59;4998459;28;20033;-47
2023/04/12 11:19:38;;;;;;;3.38;1.10;;;;;;;13.63;49.25;100386.63;5008926;28;20026;-50
2023/04/12 11:22:05;;;;;;;4.25;1.00;;;;;;;13.65;49.00;100376.78;5005315;28;20033;-49
2023/04/12 11:24:31;;;;;;;5.53;1.08;;;;;;;13.68;48.63;100375.69;5004950;28;20420;-48
2023/04/12 11:26:58;;;;;;;6.20;1.65;;;;;;;13.74;49.13;100364.66;5000395;28;20112;-48
2023/04/12 11:29:26;;;;;;;5.20;1.17;;;;;;;13.79;48.83;100364.28;5008179;28;20041;-52
2023/04/12 11:31:52;;;;;;;3.03;1.02;;;;;;;13.84;48.13;100357.69;5007415;28;20045;-49